Homestead ARB Airport Homestead US
ICAO: KHST
IATA: HST
Category: Medium
Scheduled Services: No

Elevation: 5 ft
TransAlt. 18000 ft.

Airport Communications:
APP/DEP:123.8
ATIS:132.275
CLNC DEL:27.58
GCA:123.8
GND:121.75
93FS:138.025
PMSV METRO:31.865
COMD POST:25.21
PTD:37.22
TWR:133.45

KHST Zoom In..

If you have problems with the map follow the link
https://www.worldairports.se/pages/airport.php?
ICAO=KHST

Runways:

(A) RW 05 length 11200 ft width 300 ft
ILS 109.90 / hdg 52

(B) RW 23 length 11200 ft width 300 ft
---- / hdg 232

Location; KHST
Day. 08 / Time. 03.56 Zulu
* Altimeter: 30.12
* Temperature: 17° c. 62.6°f.
* Wind from: 000° Speed 00 kn.
Dewpoint: 16° c.
Visibility: 10 Statute Miles.
Clouds: Few 3900 ft.

KHST 080356Z AUTO 00000KT 10SM FEW039 17/16 A3012 RMK AO2 SLP203 T01700155


Wind - Calm.

 
 
jpsmedia worldairports.se 2019   terms of use